sensor_id;sensor_type;location;lat;lon;timestamp;pressure;altitude;pressure_sealevel;temperature;humidity
28289;BME280;15558;50.874;6.964;2022-12-10T00:01:42;100413.97;;;4.69;64.66
28289;BME280;15558;50.874;6.964;2022-12-10T00:04:08;100426.47;;;4.67;64.89
28289;BME280;15558;50.874;6.964;2022-12-10T00:06:35;100430.06;;;4.62;64.81
28289;BME280;15558;50.874;6.964;2022-12-10T00:09:01;100427.84;;;4.59;65.50
28289;BME280;15558;50.874;6.964;2022-12-10T00:11:27;100429.25;;;4.62;65.43
28289;BME280;15558;50.874;6.964;2022-12-10T00:13:53;100424.19;;;4.59;65.11
28289;BME280;15558;50.874;6.964;2022-12-10T00:16:20;100427.78;;;4.54;64.86
28289;BME280;15558;50.874;6.964;2022-12-10T00:18:46;100431.13;;;4.56;64.75
28289;BME280;15558;50.874;6.964;2022-12-10T00:21:13;100427.78;;;4.54;65.05
28289;BME280;15558;50.874;6.964;2022-12-10T00:23:40;100425.56;;;4.52;64.63
28289;BME280;15558;50.874;6.964;2022-12-10T00:26:07;100430.00;;;4.53;65.22
28289;BME280;15558;50.874;6.964;2022-12-10T00:28:33;100430.00;;;4.53;64.42
28289;BME280;15558;50.874;6.964;2022-12-10T00:31:09;100430.53;;;4.50;64.92
28289;BME280;15558;50.874;6.964;2022-12-10T00:33:36;100435.28;;;4.49;65.12
28289;BME280;15558;50.874;6.964;2022-12-10T00:36:06;100432.19;;;4.51;65.26
28289;BME280;15558;50.874;6.964;2022-12-10T00:38:32;100435.47;;;4.43;64.89
28289;BME280;15558;50.874;6.964;2022-12-10T00:40:58;100425.50;;;4.47;65.13
28289;BME280;15558;50.874;6.964;2022-12-10T00:43:23;100429.66;;;4.39;64.57
28289;BME280;15558;50.874;6.964;2022-12-10T00:45:49;100429.66;;;4.39;64.29
28289;BME280;15558;50.874;6.964;2022-12-10T00:48:15;100427.13;;;4.38;64.61
28289;BME280;15558;50.874;6.964;2022-12-10T00:50:41;100431.03;;;4.37;64.43
28289;BME280;15558;50.874;6.964;2022-12-10T00:53:07;100419.34;;;4.35;64.33
28289;BME280;15558;50.874;6.964;2022-12-10T00:55:32;100429.88;;;4.33;64.52
28289;BME280;15558;50.874;6.964;2022-12-10T00:57:58;100417.91;;;4.32;65.00
28289;BME280;15558;50.874;6.964;2022-12-10T01:00:24;100420.16;;;4.35;65.11
28289;BME280;15558;50.874;6.964;2022-12-10T01:02:50;100423.78;;;4.36;64.63
28289;BME280;15558;50.874;6.964;2022-12-10T01:05:15;100433.28;;;4.45;63.93
28289;BME280;15558;50.874;6.964;2022-12-10T01:07:41;100426.81;;;4.34;64.23
28289;BME280;15558;50.874;6.964;2022-12-10T01:10:07;100425.41;;;4.32;65.00
28289;BME280;15558;50.874;6.964;2022-12-10T01:12:33;100436.84;;;4.35;64.91
28289;BME280;15558;50.874;6.964;2022-12-10T01:14:59;100436.56;;;4.37;64.03
28289;BME280;15558;50.874;6.964;2022-12-10T01:17:24;100433.25;;;4.40;64.06
28289;BME280;15558;50.874;6.964;2022-12-10T01:19:50;100439.88;;;4.34;63.99
28289;BME280;15558;50.874;6.964;2022-12-10T01:22:16;100447.13;;;4.35;63.89
28289;BME280;15558;50.874;6.964;2022-12-10T01:24:41;100447.63;;;4.32;64.34
28289;BME280;15558;50.874;6.964;2022-12-10T01:27:07;100450.13;;;4.28;63.67
28289;BME280;15558;50.874;6.964;2022-12-10T01:29:33;100447.88;;;4.25;63.56
28289;BME280;15558;50.874;6.964;2022-12-10T01:31:59;100456.16;;;4.20;63.84
28289;BME280;15558;50.874;6.964;2022-12-10T01:34:25;100461.97;;;4.19;63.64
28289;BME280;15558;50.874;6.964;2022-12-10T01:36:52;100470.88;;;4.21;63.92
28289;BME280;15558;50.874;6.964;2022-12-10T01:39:18;100467.78;;;4.18;64.24
28289;BME280;15558;50.874;6.964;2022-12-10T01:46:39;100474.47;;;4.17;64.37
28289;BME280;15558;50.874;6.964;2022-12-10T01:49:07;100477.81;;;4.18;63.95
28289;BME280;15558;50.874;6.964;2022-12-10T01:51:34;100476.13;;;4.18;64.44
28289;BME280;15558;50.874;6.964;2022-12-10T01:54:01;100472.25;;;4.18;64.89
28289;BME280;15558;50.874;6.964;2022-12-10T01:56:28;100477.25;;;4.21;64.76
28289;BME280;15558;50.874;6.964;2022-12-10T01:58:56;100479.75;;;4.18;64.95
28289;BME280;15558;50.874;6.964;2022-12-10T02:01:25;100483.03;;;4.15;65.03
28289;BME280;15558;50.874;6.964;2022-12-10T02:06:22;100473.41;;;4.22;65.05
28289;BME280;15558;50.874;6.964;2022-12-10T02:09:02;100475.28;;;4.17;65.33
28289;BME280;15558;50.874;6.964;2022-12-10T02:11:31;100480.84;;;4.17;65.34
28289;BME280;15558;50.874;6.964;2022-12-10T02:14:02;100483.59;;;4.12;65.01
28289;BME280;15558;50.874;6.964;2022-12-10T02:18:58;100488.91;;;4.18;65.35
28289;BME280;15558;50.874;6.964;2022-12-10T02:21:34;100491.44;;;4.20;65.62
28289;BME280;15558;50.874;6.964;2022-12-10T02:24:03;100485.50;;;4.12;64.92
28289;BME280;15558;50.874;6.964;2022-12-10T02:26:51;100488.28;;;4.12;65.44
28289;BME280;15558;50.874;6.964;2022-12-10T02:29:23;100488.03;;;4.13;64.69
28289;BME280;15558;50.874;6.964;2022-12-10T02:32:09;100495.19;;;4.09;65.07
28289;BME280;15558;50.874;6.964;2022-12-10T02:34:37;100497.41;;;4.07;65.23
28289;BME280;15558;50.874;6.964;2022-12-10T02:37:06;100498.03;;;4.14;65.13
28289;BME280;15558;50.874;6.964;2022-12-10T02:39:39;100487.41;;;4.06;65.18
28289;BME280;15558;50.874;6.964;2022-12-10T02:42:05;100481.59;;;4.08;65.13
28289;BME280;15558;50.874;6.964;2022-12-10T02:44:33;100486.84;;;4.04;64.69
28289;BME280;15558;50.874;6.964;2022-12-10T02:47:00;100476.88;;;4.08;64.80
28289;BME280;15558;50.874;6.964;2022-12-10T02:49:27;100484.09;;;4.09;65.37
28289;BME280;15558;50.874;6.964;2022-12-10T02:51:54;100485.72;;;4.05;65.18
28289;BME280;15558;50.874;6.964;2022-12-10T02:54:34;100481.28;;;4.04;64.30
28289;BME280;15558;50.874;6.964;2022-12-10T02:57:01;100491.78;;;3.97;64.35
28289;BME280;15558;50.874;6.964;2022-12-10T02:59:29;100490.13;;;4.01;65.03
28289;BME280;15558;50.874;6.964;2022-12-10T03:02:03;100497.34;;;3.97;65.33
28289;BME280;15558;50.874;6.964;2022-12-10T03:07:28;100490.41;;;4.00;64.84
28289;BME280;15558;50.874;6.964;2022-12-10T03:09:59;100499.81;;;3.99;65.82
28289;BME280;15558;50.874;6.964;2022-12-10T03:17:38;100501.22;;;4.01;65.58
28289;BME280;15558;50.874;6.964;2022-12-10T03:20:06;100496.78;;;4.00;65.51
28289;BME280;15558;50.874;6.964;2022-12-10T03:22:34;100507.44;;;4.08;66.27
28289;BME280;15558;50.874;6.964;2022-12-10T03:25:00;100508.28;;;4.14;66.23
28289;BME280;15558;50.874;6.964;2022-12-10T03:27:26;100498.03;;;4.14;66.79
28289;BME280;15558;50.874;6.964;2022-12-10T03:29:54;100497.41;;;4.07;66.78
28289;BME280;15558;50.874;6.964;2022-12-10T03:32:22;100495.78;;;4.11;66.25
28289;BME280;15558;50.874;6.964;2022-12-10T03:34:48;100493.34;;;4.19;66.95
28289;BME280;15558;50.874;6.964;2022-12-10T03:37:15;100498.88;;;4.15;67.10
28289;BME280;15558;50.874;6.964;2022-12-10T03:39:41;100492.78;;;4.18;67.15
28289;BME280;15558;50.874;6.964;2022-12-10T03:42:07;100495.31;;;4.19;66.95
28289;BME280;15558;50.874;6.964;2022-12-10T03:44:34;100500.03;;;4.18;66.59
28289;BME280;15558;50.874;6.964;2022-12-10T03:47:01;100504.25;;;4.26;67.16
28289;BME280;15558;50.874;6.964;2022-12-10T03:49:31;100499.81;;;4.25;67.00
28289;BME280;15558;50.874;6.964;2022-12-10T03:51:57;100512.06;;;4.29;67.45
28289;BME280;15558;50.874;6.964;2022-12-10T03:54:22;100505.44;;;4.35;67.04
28289;BME280;15558;50.874;6.964;2022-12-10T03:56:48;100512.97;;;4.39;66.89
28289;BME280;15558;50.874;6.964;2022-12-10T03:59:14;100504.41;;;4.46;66.52
28289;BME280;15558;50.874;6.964;2022-12-10T04:01:39;100511.59;;;4.42;66.46
28289;BME280;15558;50.874;6.964;2022-12-10T04:04:05;100509.72;;;4.47;66.56
28289;BME280;15558;50.874;6.964;2022-12-10T04:06:31;100506.13;;;4.52;66.92
28289;BME280;15558;50.874;6.964;2022-12-10T04:08:57;100511.94;;;4.50;67.07
28289;BME280;15558;50.874;6.964;2022-12-10T04:11:23;100511.38;;;4.48;67.24
28289;BME280;15558;50.874;6.964;2022-12-10T04:13:50;100519.22;;;4.56;66.78
28289;BME280;15558;50.874;6.964;2022-12-10T04:16:34;100523.41;;;4.58;66.59
28289;BME280;15558;50.874;6.964;2022-12-10T04:19:03;100523.97;;;4.55;67.32
28289;BME280;15558;50.874;6.964;2022-12-10T04:21:30;100517.59;;;4.60;66.63
28289;BME280;15558;50.874;6.964;2022-12-10T04:24:15;100532.34;;;4.65;66.50
28289;BME280;15558;50.874;6.964;2022-12-10T04:27:02;100522.34;;;4.64;66.93
28289;BME280;15558;50.874;6.964;2022-12-10T04:29:29;100526.22;;;4.63;67.43
28289;BME280;15558;50.874;6.964;2022-12-10T04:31:56;100529.53;;;4.60;67.24
28289;BME280;15558;50.874;6.964;2022-12-10T04:34:22;100525.94;;;4.60;66.99
28289;BME280;15558;50.874;6.964;2022-12-10T04:36:48;100532.66;;;4.69;66.97
28289;BME280;15558;50.874;6.964;2022-12-10T04:39:13;100535.66;;;4.62;67.60
28289;BME280;15558;50.874;6.964;2022-12-10T04:41:40;100532.09;;;4.67;67.34
28289;BME280;15558;50.874;6.964;2022-12-10T04:44:07;100524.91;;;4.71;66.87
28289;BME280;15558;50.874;6.964;2022-12-10T04:46:33;100532.97;;;4.72;67.03
28289;BME280;15558;50.874;6.964;2022-12-10T04:48:59;100537.41;;;4.73;66.71
28289;BME280;15558;50.874;6.964;2022-12-10T04:51:24;100529.56;;;4.65;67.17
28289;BME280;15558;50.874;6.964;2022-12-10T04:53:50;100531.56;;;4.70;67.25
28289;BME280;15558;50.874;6.964;2022-12-10T04:56:16;100532.41;;;4.70;67.43
28289;BME280;15558;50.874;6.964;2022-12-10T04:58:42;100531.28;;;4.71;67.40
28289;BME280;15558;50.874;6.964;2022-12-10T05:01:08;100528.78;;;4.70;67.19
28289;BME280;15558;50.874;6.964;2022-12-10T05:03:34;100522.66;;;4.68;67.58
28289;BME280;15558;50.874;6.964;2022-12-10T05:06:01;100532.91;;;4.62;67.75
28289;BME280;15558;50.874;6.964;2022-12-10T05:08:27;100522.34;;;4.64;66.99
28289;BME280;15558;50.874;6.964;2022-12-10T05:10:53;100522.91;;;4.61;67.43
28289;BME280;15558;50.874;6.964;2022-12-10T05:13:19;100532.09;;;4.67;67.73
28289;BME280;15558;50.874;6.964;2022-12-10T05:15:44;100522.03;;;4.61;67.49
28289;BME280;15558;50.874;6.964;2022-12-10T05:18:10;100518.75;;;4.64;68.29
28289;BME280;15558;50.874;6.964;2022-12-10T05:20:36;100524.31;;;4.64;67.69
28289;BME280;15558;50.874;6.964;2022-12-10T05:23:02;100529.53;;;4.60;68.11
28289;BME280;15558;50.874;6.964;2022-12-10T05:25:46;100532.88;;;4.57;67.94
28289;BME280;15558;50.874;6.964;2022-12-10T05:28:19;100526.19;;;4.58;67.42
28289;BME280;15558;50.874;6.964;2022-12-10T05:30:45;100536.50;;;4.63;67.41
28289;BME280;15558;50.874;6.964;2022-12-10T05:33:11;100526.50;;;4.62;67.04
28289;BME280;15558;50.874;6.964;2022-12-10T05:35:36;100525.97;;;4.65;67.54
28289;BME280;15558;50.874;6.964;2022-12-10T05:38:02;100529.06;;;4.68;67.17
28289;BME280;15558;50.874;6.964;2022-12-10T05:40:28;100534.94;;;4.72;67.79
28289;BME280;15558;50.874;6.964;2022-12-10T05:42:54;100528.25;;;4.73;67.92
28289;BME280;15558;50.874;6.964;2022-12-10T05:45:19;100523.25;;;4.75;67.72
28289;BME280;15558;50.874;6.964;2022-12-10T05:47:45;100520.75;;;4.73;67.23
28289;BME280;15558;50.874;6.964;2022-12-10T05:50:11;100534.38;;;4.75;67.05
28289;BME280;15558;50.874;6.964;2022-12-10T05:52:37;100539.38;;;4.78;67.51
28289;BME280;15558;50.874;6.964;2022-12-10T05:55:02;100546.63;;;4.79;67.94
28289;BME280;15558;50.874;6.964;2022-12-10T05:57:28;100552.47;;;4.77;68.15
28289;BME280;15558;50.874;6.964;2022-12-10T05:59:54;100544.94;;;4.78;67.86
28289;BME280;15558;50.874;6.964;2022-12-10T06:02:20;100552.19;;;4.79;67.87
28289;BME280;15558;50.874;6.964;2022-12-10T06:04:45;100548.53;;;4.73;67.51
28289;BME280;15558;50.874;6.964;2022-12-10T06:07:11;100554.09;;;4.73;67.34
28289;BME280;15558;50.874;6.964;2022-12-10T06:09:37;100548.53;;;4.73;68.09
28289;BME280;15558;50.874;6.964;2022-12-10T06:12:03;100554.91;;;4.74;67.77
28289;BME280;15558;50.874;6.964;2022-12-10T06:14:28;100559.41;;;4.75;67.40
28289;BME280;15558;50.874;6.964;2022-12-10T06:16:54;100551.06;;;4.75;67.52
28289;BME280;15558;50.874;6.964;2022-12-10T06:19:20;100558.03;;;4.77;67.55
28289;BME280;15558;50.874;6.964;2022-12-10T06:21:45;100544.34;;;4.71;67.50
28289;BME280;15558;50.874;6.964;2022-12-10T06:24:11;100560.81;;;4.77;67.29
28289;BME280;15558;50.874;6.964;2022-12-10T06:26:37;100556.34;;;4.76;67.59
28289;BME280;15558;50.874;6.964;2022-12-10T06:29:03;100552.47;;;4.77;67.75
28289;BME280;15558;50.874;6.964;2022-12-10T06:31:30;100557.78;;;4.84;67.38
28289;BME280;15558;50.874;6.964;2022-12-10T06:33:55;100554.72;;;4.80;67.98
28289;BME280;15558;50.874;6.964;2022-12-10T06:36:21;100557.22;;;4.82;68.11
28289;BME280;15558;50.874;6.964;2022-12-10T06:38:47;100562.78;;;4.82;67.89
28289;BME280;15558;50.874;6.964;2022-12-10T06:41:14;100558.63;;;4.84;67.27
28289;BME280;15558;50.874;6.964;2022-12-10T06:43:40;100566.97;;;4.84;67.46
28289;BME280;15558;50.874;6.964;2022-12-10T06:46:06;100565.84;;;4.80;67.27
28289;BME280;15558;50.874;6.964;2022-12-10T06:48:32;100572.25;;;4.86;67.72
28289;BME280;15558;50.874;6.964;2022-12-10T06:50:57;100568.09;;;4.88;67.05
28289;BME280;15558;50.874;6.964;2022-12-10T06:53:23;100567.28;;;4.88;67.74
28289;BME280;15558;50.874;6.964;2022-12-10T06:55:49;100565.38;;;4.93;66.99
28289;BME280;15558;50.874;6.964;2022-12-10T06:58:15;100575.13;;;4.95;67.38
28289;BME280;15558;50.874;6.964;2022-12-10T07:00:40;100582.88;;;4.88;67.66
28289;BME280;15558;50.874;6.964;2022-12-10T07:03:06;100581.44;;;4.86;67.70
28289;BME280;15558;50.874;6.964;2022-12-10T07:05:32;100591.72;;;4.86;67.89
28289;BME280;15558;50.874;6.964;2022-12-10T07:07:57;100597.03;;;4.87;67.08
28289;BME280;15558;50.874;6.964;2022-12-10T07:10:26;100595.97;;;4.93;67.21
28289;BME280;15558;50.874;6.964;2022-12-10T07:12:51;100595.63;;;4.85;67.09
28289;BME280;15558;50.874;6.964;2022-12-10T07:15:17;100590.09;;;4.89;67.06
28289;BME280;15558;50.874;6.964;2022-12-10T07:17:43;100595.66;;;4.89;67.42
28289;BME280;15558;50.874;6.964;2022-12-10T07:20:09;100592.03;;;4.89;66.36
28289;BME280;15558;50.874;6.964;2022-12-10T07:22:37;100596.56;;;5.00;66.33
28289;BME280;15558;50.874;6.964;2022-12-10T07:25:04;100599.56;;;4.93;66.18
28289;BME280;15558;50.874;6.964;2022-12-10T07:27:30;100600.72;;;4.97;66.08
28289;BME280;15558;50.874;6.964;2022-12-10T07:29:56;100602.59;;;4.92;65.86
28289;BME280;15558;50.874;6.964;2022-12-10T07:32:22;100605.13;;;4.93;66.32
28289;BME280;15558;50.874;6.964;2022-12-10T07:34:48;100604.31;;;4.93;65.43
28289;BME280;15558;50.874;6.964;2022-12-10T07:37:14;100618.16;;;4.88;65.88
28289;BME280;15558;50.874;6.964;2022-12-10T07:39:39;100618.94;;;4.84;65.56
28289;BME280;15558;50.874;6.964;2022-12-10T07:42:05;100623.69;;;4.83;65.69
28289;BME280;15558;50.874;6.964;2022-12-10T07:44:31;100614.50;;;4.83;66.11
28289;BME280;15558;50.874;6.964;2022-12-10T07:46:56;100618.44;;;4.87;66.24
28289;BME280;15558;50.874;6.964;2022-12-10T07:49:22;100619.28;;;4.92;66.29
28289;BME280;15558;50.874;6.964;2022-12-10T07:51:49;100616.81;;;4.90;65.71
28289;BME280;15558;50.874;6.964;2022-12-10T07:54:15;100629.91;;;4.95;66.17
28289;BME280;15558;50.874;6.964;2022-12-10T07:56:41;100627.13;;;4.95;66.42
28289;BME280;15558;50.874;6.964;2022-12-10T07:59:07;100625.75;;;4.97;65.57
28289;BME280;15558;50.874;6.964;2022-12-10T08:01:33;100627.34;;;4.88;66.43
28289;BME280;15558;50.874;6.964;2022-12-10T08:03:59;100630.72;;;4.95;65.92
28289;BME280;15558;50.874;6.964;2022-12-10T08:06:25;100625.97;;;4.91;66.22
28289;BME280;15558;50.874;6.964;2022-12-10T08:08:51;100634.31;;;4.91;66.51
28289;BME280;15558;50.874;6.964;2022-12-10T08:11:18;100635.41;;;4.90;66.18
28289;BME280;15558;50.874;6.964;2022-12-10T08:13:44;100632.94;;;4.93;65.95
28289;BME280;15558;50.874;6.964;2022-12-10T08:16:14;100639.63;;;4.92;65.98
28289;BME280;15558;50.874;6.964;2022-12-10T08:18:40;100639.88;;;4.91;66.13
28289;BME280;15558;50.874;6.964;2022-12-10T08:21:08;100644.59;;;4.90;65.67
28289;BME280;15558;50.874;6.964;2022-12-10T08:23:34;100646.81;;;4.88;66.42
28289;BME280;15558;50.874;6.964;2022-12-10T08:26:03;100646.81;;;4.88;66.08
28289;BME280;15558;50.874;6.964;2022-12-10T08:28:29;100650.75;;;4.92;66.69
28289;BME280;15558;50.874;6.964;2022-12-10T08:30:55;100654.63;;;4.96;66.42
28289;BME280;15558;50.874;6.964;2022-12-10T08:33:21;100661.06;;;4.97;66.37
28289;BME280;15558;50.874;6.964;2022-12-10T08:35:47;100653.28;;;4.99;66.59
28289;BME280;15558;50.874;6.964;2022-12-10T08:38:12;100661.06;;;4.97;67.19
28289;BME280;15558;50.874;6.964;2022-12-10T08:40:39;100656.34;;;4.97;66.98
28289;BME280;15558;50.874;6.964;2022-12-10T08:43:05;100666.34;;;4.98;67.06
28289;BME280;15558;50.874;6.964;2022-12-10T08:45:31;100657.47;;;5.01;67.23
28289;BME280;15558;50.874;6.964;2022-12-10T08:47:56;100657.50;;;5.06;67.69
28289;BME280;15558;50.874;6.964;2022-12-10T08:50:22;100667.81;;;5.11;67.70
28289;BME280;15558;50.874;6.964;2022-12-10T08:52:48;100672.31;;;5.12;67.77
28289;BME280;15558;50.874;6.964;2022-12-10T08:55:14;100670.63;;;5.11;68.15
28289;BME280;15558;50.874;6.964;2022-12-10T08:57:39;100677.28;;;5.10;68.07
28289;BME280;15558;50.874;6.964;2022-12-10T09:00:05;100676.75;;;5.13;68.13
28289;BME280;15558;50.874;6.964;2022-12-10T09:02:32;100683.19;;;5.13;67.68
28289;BME280;15558;50.874;6.964;2022-12-10T09:04:58;100678.19;;;5.15;68.26
28289;BME280;15558;50.874;6.964;2022-12-10T09:07:23;100681.25;;;5.19;67.58
28289;BME280;15558;50.874;6.964;2022-12-10T09:09:49;100683.19;;;5.18;67.90
28289;BME280;15558;50.874;6.964;2022-12-10T09:12:15;100679.63;;;5.27;67.62
28289;BME280;15558;50.874;6.964;2022-12-10T09:14:41;100670.47;;;5.27;67.79
28289;BME280;15558;50.874;6.964;2022-12-10T09:17:07;100677.38;;;5.20;67.34
28289;BME280;15558;50.874;6.964;2022-12-10T09:19:33;100688.28;;;5.26;67.99
28289;BME280;15558;50.874;6.964;2022-12-10T09:21:59;100684.09;;;5.23;67.97
28289;BME280;15558;50.874;6.964;2022-12-10T09:24:25;100684.91;;;5.24;68.06
28289;BME280;15558;50.874;6.964;2022-12-10T09:26:51;100681.34;;;5.28;68.09
28289;BME280;15558;50.874;6.964;2022-12-10T09:29:17;100678.00;;;5.31;67.99
28289;BME280;15558;50.874;6.964;2022-12-10T09:31:42;100678.88;;;5.37;67.53
28289;BME280;15558;50.874;6.964;2022-12-10T09:34:08;100680.78;;;5.31;68.37
28289;BME280;15558;50.874;6.964;2022-12-10T09:36:34;100678.56;;;5.33;68.65
28289;BME280;15558;50.874;6.964;2022-12-10T09:39:00;100683.53;;;5.26;68.46
28289;BME280;15558;50.874;6.964;2022-12-10T09:44:00;100685.53;;;5.31;67.86
28289;BME280;15558;50.874;6.964;2022-12-10T09:46:38;100677.50;;;5.39;68.26
28289;BME280;15558;50.874;6.964;2022-12-10T09:49:22;100682.00;;;5.40;67.79
28289;BME280;15558;50.874;6.964;2022-12-10T09:51:50;100686.69;;;5.40;68.27
28289;BME280;15558;50.874;6.964;2022-12-10T09:54:29;100687.81;;;5.39;67.97
28289;BME280;15558;50.874;6.964;2022-12-10T09:56:56;100683.91;;;5.40;68.39
28289;BME280;15558;50.874;6.964;2022-12-10T09:59:30;100682.25;;;5.39;68.17
28289;BME280;15558;50.874;6.964;2022-12-10T10:04:40;100696.41;;;5.37;68.48
28289;BME280;15558;50.874;6.964;2022-12-10T10:07:06;100701.47;;;5.40;68.47
28289;BME280;15558;50.874;6.964;2022-12-10T10:09:36;100692.53;;;5.38;68.18
28289;BME280;15558;50.874;6.964;2022-12-10T10:12:14;100701.50;;;5.45;68.22
28289;BME280;15558;50.874;6.964;2022-12-10T10:14:40;100692.53;;;5.38;68.34
28289;BME280;15558;50.874;6.964;2022-12-10T10:19:51;100693.69;;;5.42;67.67
28289;BME280;15558;50.874;6.964;2022-12-10T10:22:16;100702.06;;;5.47;67.76
28289;BME280;15558;50.874;6.964;2022-12-10T10:24:43;100695.38;;;5.48;68.25
28289;BME280;15558;50.874;6.964;2022-12-10T10:27:20;100697.63;;;5.51;68.21
28289;BME280;15558;50.874;6.964;2022-12-10T10:29:47;100691.84;;;5.57;68.66
28289;BME280;15558;50.874;6.964;2022-12-10T10:32:24;100693.81;;;5.62;68.37
28289;BME280;15558;50.874;6.964;2022-12-10T10:34:54;100689.88;;;5.58;67.97
28289;BME280;15558;50.874;6.964;2022-12-10T10:37:21;100685.47;;;5.62;68.12
28289;BME280;15558;50.874;6.964;2022-12-10T10:39:49;100691.06;;;5.67;67.75
28289;BME280;15558;50.874;6.964;2022-12-10T10:42:22;100686.00;;;5.59;68.03
28289;BME280;15558;50.874;6.964;2022-12-10T10:44:51;100687.72;;;5.65;68.15
28289;BME280;15558;50.874;6.964;2022-12-10T10:47:27;100689.97;;;5.68;68.31
28289;BME280;15558;50.874;6.964;2022-12-10T10:49:53;100693.34;;;5.75;67.85
28289;BME280;15558;50.874;6.964;2022-12-10T10:52:19;100680.00;;;5.72;67.51
28289;BME280;15558;50.874;6.964;2022-12-10T10:54:45;100698.94;;;5.75;67.86
28289;BME280;15558;50.874;6.964;2022-12-10T10:57:12;100684.25;;;5.84;67.47
28289;BME280;15558;50.874;6.964;2022-12-10T10:59:40;100697.00;;;5.75;67.49
28289;BME280;15558;50.874;6.964;2022-12-10T11:02:26;100693.97;;;5.82;67.04
28289;BME280;15558;50.874;6.964;2022-12-10T11:04:55;100710.13;;;5.80;67.40
28289;BME280;15558;50.874;6.964;2022-12-10T11:07:24;100703.41;;;5.81;66.93
28289;BME280;15558;50.874;6.964;2022-12-10T11:09:52;100704.88;;;5.88;66.36
28289;BME280;15558;50.874;6.964;2022-12-10T11:12:23;100696.22;;;5.90;66.79
28289;BME280;15558;50.874;6.964;2022-12-10T11:14:52;100699.06;;;5.94;66.56
28289;BME280;15558;50.874;6.964;2022-12-10T11:17:20;100692.03;;;5.82;66.92
28289;BME280;15558;50.874;6.964;2022-12-10T11:22:25;100684.81;;;5.91;66.86
28289;BME280;15558;50.874;6.964;2022-12-10T11:24:51;100692.94;;;5.97;67.09
28289;BME280;15558;50.874;6.964;2022-12-10T11:30:00;100694.69;;;6.08;66.14
28289;BME280;15558;50.874;6.964;2022-12-10T11:32:34;100689.09;;;6.08;66.36
28289;BME280;15558;50.874;6.964;2022-12-10T11:37:33;100684.22;;;6.40;65.50
28289;BME280;15558;50.874;6.964;2022-12-10T11:43:00;100688.72;;;6.61;65.56
28289;BME280;15558;50.874;6.964;2022-12-10T11:50:51;100689.56;;;6.66;64.00
28289;BME280;15558;50.874;6.964;2022-12-10T11:53:33;100688.19;;;6.78;65.82
28289;BME280;15558;50.874;6.964;2022-12-10T11:56:07;100692.97;;;6.83;65.18
28289;BME280;15558;50.874;6.964;2022-12-10T12:01:13;100697.91;;;6.66;64.67
28289;BME280;15558;50.874;6.964;2022-12-10T12:22:45;100708.63;;;6.13;64.79
28289;BME280;15558;50.874;6.964;2022-12-10T12:25:25;100711.41;;;6.18;64.61
28289;BME280;15558;50.874;6.964;2022-12-10T12:27:53;100705.88;;;6.23;64.68
28289;BME280;15558;50.874;6.964;2022-12-10T12:30:22;100709.81;;;6.27;64.36
28289;BME280;15558;50.874;6.964;2022-12-10T12:32:53;100708.63;;;6.13;64.89
28289;BME280;15558;50.874;6.964;2022-12-10T12:35:22;100713.06;;;6.14;65.09
28289;BME280;15558;50.874;6.964;2022-12-10T12:38:19;100713.06;;;6.14;64.55
28289;BME280;15558;50.874;6.964;2022-12-10T12:40:51;100710.91;;;6.26;64.70
28289;BME280;15558;50.874;6.964;2022-12-10T12:44:07;100713.72;;;6.31;64.12
28289;BME280;15558;50.874;6.964;2022-12-10T12:46:09;100713.41;;;6.28;64.76
28289;BME280;15558;50.874;6.964;2022-12-10T12:48:51;100713.69;;;6.21;64.87
28289;BME280;15558;50.874;6.964;2022-12-10T12:51:34;100708.09;;;6.21;64.46
28289;BME280;15558;50.874;6.964;2022-12-10T12:54:04;100710.63;;;6.28;64.23
28289;BME280;15558;50.874;6.964;2022-12-10T13:01:36;100698.66;;;6.27;63.38
28289;BME280;15558;50.874;6.964;2022-12-10T13:04:03;100696.41;;;6.24;63.36
28289;BME280;15558;50.874;6.964;2022-12-10T13:06:34;100695.88;;;6.32;62.99
28289;BME280;15558;50.874;6.964;2022-12-10T13:20:24;100686.94;;;6.25;62.14
28289;BME280;15558;50.874;6.964;2022-12-10T13:22:42;100692.00;;;6.43;61.58
28289;BME280;15558;50.874;6.964;2022-12-10T13:25:11;100693.66;;;6.39;62.19
28289;BME280;15558;50.874;6.964;2022-12-10T13:27:38;100695.66;;;6.48;62.24
28289;BME280;15558;50.874;6.964;2022-12-10T13:30:29;100695.34;;;6.45;61.99
28289;BME280;15558;50.874;6.964;2022-12-10T13:32:52;100710.94;;;6.36;61.98
28289;BME280;15558;50.874;6.964;2022-12-10T13:35:27;100710.94;;;6.41;61.56
28289;BME280;15558;50.874;6.964;2022-12-10T13:37:57;100697.06;;;6.51;61.19
28289;BME280;15558;50.874;6.964;2022-12-10T13:48:49;100707.34;;;6.40;61.57
28289;BME280;15558;50.874;6.964;2022-12-10T13:51:35;100702.03;;;6.39;62.08
28289;BME280;15558;50.874;6.964;2022-12-10T13:56:41;100720.38;;;6.30;62.37
28289;BME280;15558;50.874;6.964;2022-12-10T14:06:58;100724.63;;;6.37;61.94
28289;BME280;15558;50.874;6.964;2022-12-10T14:09:29;100730.44;;;6.36;62.01
28289;BME280;15558;50.874;6.964;2022-12-10T14:11:59;100724.38;;;6.49;61.22
28289;BME280;15558;50.874;6.964;2022-12-10T14:14:35;100731.28;;;6.36;61.49
28289;BME280;15558;50.874;6.964;2022-12-10T14:17:04;100728.25;;;6.43;62.23
28289;BME280;15558;50.874;6.964;2022-12-10T14:19:30;100740.22;;;6.33;61.29
28289;BME280;15558;50.874;6.964;2022-12-10T14:21:58;100741.03;;;6.34;61.89
28289;BME280;15558;50.874;6.964;2022-12-10T14:26:57;100736.53;;;6.28;61.76
28289;BME280;15558;50.874;6.964;2022-12-10T14:29:23;100744.66;;;6.34;61.98
28289;BME280;15558;50.874;6.964;2022-12-10T14:31:49;100743.81;;;6.29;62.21
28289;BME280;15558;50.874;6.964;2022-12-10T14:34:21;100746.28;;;6.26;61.83
28289;BME280;15558;50.874;6.964;2022-12-10T14:36:52;100746.25;;;6.21;62.71
28289;BME280;15558;50.874;6.964;2022-12-10T14:39:20;100746.28;;;6.26;62.48
28289;BME280;15558;50.874;6.964;2022-12-10T14:41:47;100741.81;;;6.20;62.28
28289;BME280;15558;50.874;6.964;2022-12-10T14:44:14;100754.09;;;6.24;62.40
28289;BME280;15558;50.874;6.964;2022-12-10T14:46:40;100755.47;;;6.26;62.40